Cutral-Co, Argentina
Current Conditions -  °F | °C
As of 7:00 PM on Saturday 25 Oct 2014 (Local Time) from SAZN Reporting Station
Few Clouds Few Clouds  
Wind Chill: 86°   Ceiling: Unl
Heat Index: 86°   Visibility: 6mi
Dew Point: 59°   Wind: 0mph
Humidity: 40%   Direction: NA
Pressure: 29.74"   Gusts: NA
Location:  38.93°S, 69.23°W
Report Text: SAZN 252200Z 00000KT 9999 FEW050 FEW10030/15 Q1007
Loading
Personal Weather Stations






























Interactive Weather Map
Tropical Storm Tracking
New forecast layout! Learn more

10-Day Weather Forecast

Advertisements
Track Severe Weather on mobile